createdAt,value
2022-11-10T00:00:16.699Z,45.88
2022-11-10T00:03:06.594Z,44.70
2022-11-10T00:05:53.451Z,50.20
2022-11-10T00:08:40.489Z,50.03
2022-11-10T00:11:27.241Z,50.47
2022-11-10T00:14:31.243Z,52.40
2022-11-10T00:17:18.499Z,49.85
2022-11-10T00:20:07.939Z,43.50
2022-11-10T00:22:56.096Z,42.22
2022-11-10T00:25:43.369Z,42.92
2022-11-10T00:28:31.970Z,40.10
2022-11-10T00:31:18.977Z,43.92
2022-11-10T00:34:05.811Z,40.70
2022-11-10T00:36:54.225Z,45.40
2022-11-10T00:39:41.078Z,46.47
2022-11-10T00:42:27.880Z,46.80
2022-11-10T00:45:14.783Z,48.83
2022-11-10T00:48:01.675Z,45.88
2022-11-10T00:50:48.634Z,47.45
2022-11-10T00:53:37.257Z,48.03
2022-11-10T00:56:24.513Z,44.38
2022-11-10T00:59:11.188Z,47.75
2022-11-10T01:01:57.924Z,45.45
2022-11-10T01:04:44.899Z,41.15
2022-11-10T01:07:33.207Z,45.28
2022-11-10T01:10:21.160Z,45.08
2022-11-10T01:13:08.263Z,46.22
2022-11-10T01:15:55.843Z,41.30
2022-11-10T01:18:43.572Z,44.42
2022-11-10T01:21:31.776Z,42.28
2022-11-10T01:24:21.125Z,38.47
2022-11-10T01:27:09.889Z,45.77
2022-11-10T01:29:57.452Z,42.42
2022-11-10T01:32:44.791Z,47.33
2022-11-10T01:35:32.323Z,43.25
2022-11-10T01:38:19.455Z,45.42
2022-11-10T01:41:08.563Z,49.75
2022-11-10T01:44:15.749Z,45.53
2022-11-10T01:47:03.063Z,41.05
2022-11-10T01:49:51.163Z,45.13
2022-11-10T01:52:38.866Z,44.95
2022-11-10T01:55:26.479Z,45.47
2022-11-10T01:58:16.082Z,43.28
2022-11-10T02:01:04.786Z,45.58
2022-11-10T02:03:54.122Z,46.03
2022-11-10T02:06:44.341Z,43.15
2022-11-10T02:09:31.973Z,44.45
2022-11-10T02:12:37.075Z,40.10
2022-11-10T02:15:24.656Z,45.05
2022-11-10T02:18:14.150Z,39.22
2022-11-10T02:21:05.273Z,41.35
2022-11-10T02:23:53.360Z,45.53
2022-11-10T02:26:43.788Z,44.15
2022-11-10T02:29:30.851Z,43.97
2022-11-10T02:32:17.832Z,43.70
2022-11-10T02:35:05.035Z,43.25
2022-11-10T02:37:53.661Z,44.85
2022-11-10T02:40:41.168Z,44.78
2022-11-10T02:43:28.503Z,45.83
2022-11-10T02:46:15.929Z,40.97
2022-11-10T02:49:03.849Z,43.55
2022-11-10T02:51:51.017Z,42.42
2022-11-10T02:54:39.575Z,44.15
2022-11-10T02:57:26.986Z,44.17
2022-11-10T03:00:14.686Z,42.40
2022-11-10T03:03:02.714Z,42.20
2022-11-10T03:05:50.337Z,42.47
2022-11-10T03:08:38.989Z,42.58
2022-11-10T03:11:31.962Z,42.58
2022-11-10T03:14:19.295Z,42.35
2022-11-10T03:17:06.645Z,42.95
2022-11-10T03:19:53.850Z,43.65
2022-11-10T03:22:41.553Z,42.88
2022-11-10T03:25:28.664Z,40.20
2022-11-10T03:28:17.249Z,41.95
2022-11-10T03:31:04.637Z,42.28
2022-11-10T03:33:51.633Z,42.58
2022-11-10T03:36:38.829Z,44.03
2022-11-10T03:39:26.128Z,43.30
2022-11-10T03:42:13.548Z,42.28
2022-11-10T03:45:02.112Z,43.60
2022-11-10T03:47:50.495Z,43.10
2022-11-10T03:50:37.621Z,40.83
2022-11-10T03:53:25.227Z,43.45
2022-11-10T03:56:12.904Z,41.78
2022-11-10T03:59:00.709Z,39.85
2022-11-10T04:01:50.304Z,42.50
2022-11-10T04:04:55.090Z,42.60
2022-11-10T04:07:59.711Z,41.75
2022-11-10T04:10:47.508Z,41.00
2022-11-10T04:13:52.380Z,44.47
2022-11-10T04:16:40.174Z,44.53
2022-11-10T04:19:29.582Z,43.05
2022-11-10T04:22:36.593Z,42.55
2022-11-10T04:25:23.613Z,44.13
2022-11-10T04:28:10.774Z,45.92
2022-11-10T04:30:57.822Z,42.90
2022-11-10T04:33:45.642Z,44.22
2022-11-10T04:36:35.669Z,41.88
2022-11-10T04:39:22.861Z,42.35
2022-11-10T04:42:09.915Z,42.30
2022-11-10T04:44:57.255Z,42.15
2022-11-10T04:47:44.639Z,42.30
2022-11-10T04:50:31.666Z,43.08
2022-11-10T04:53:21.001Z,41.65
2022-11-10T04:56:08.370Z,41.20
2022-11-10T04:58:55.931Z,43.03
2022-11-10T05:01:43.760Z,42.58
2022-11-10T05:04:31.119Z,41.17
2022-11-10T05:07:18.216Z,42.38
2022-11-10T05:10:07.586Z,42.30
2022-11-10T05:12:55.772Z,43.40
2022-11-10T05:15:43.069Z,44.97
2022-11-10T05:18:30.268Z,45.90
2022-11-10T05:21:17.626Z,45.65
2022-11-10T05:24:04.960Z,47.05
2022-11-10T05:26:53.742Z,43.63
2022-11-10T05:29:40.969Z,44.70
2022-11-10T05:32:28.007Z,43.92
2022-11-10T05:35:15.035Z,46.40
2022-11-10T05:38:02.770Z,45.35
2022-11-10T05:40:49.819Z,46.70
2022-11-10T05:43:38.370Z,48.10
2022-11-10T05:46:26.028Z,48.90
2022-11-10T05:49:13.489Z,47.97
2022-11-10T05:52:01.276Z,44.60
2022-11-10T05:54:48.642Z,49.45
2022-11-10T05:57:35.720Z,51.33
2022-11-10T06:00:25.928Z,49.17
2022-11-10T06:03:15.540Z,49.50
2022-11-10T06:06:02.995Z,49.67
2022-11-10T06:08:50.619Z,50.50
2022-11-10T06:11:38.068Z,50.83
2022-11-10T06:14:25.259Z,49.30
2022-11-10T06:17:13.854Z,47.33
2022-11-10T06:20:01.148Z,50.15
2022-11-10T06:23:01.060Z,48.00
2022-11-10T06:25:48.258Z,49.10
2022-11-10T06:28:35.920Z,49.78
2022-11-10T06:31:23.436Z,49.65
2022-11-10T06:34:12.606Z,50.17
2022-11-10T06:37:00.103Z,47.42
2022-11-10T06:39:47.804Z,48.97
2022-11-10T06:42:35.228Z,48.22
2022-11-10T06:45:22.671Z,50.28
2022-11-10T06:48:13.894Z,48.25
2022-11-10T06:51:03.292Z,47.72
2022-11-10T06:53:50.410Z,46.20
2022-11-10T06:56:38.081Z,48.63
2022-11-10T06:59:25.281Z,47.25
2022-11-10T07:02:15.450Z,49.63
2022-11-10T07:05:03.068Z,45.25
2022-11-10T07:07:51.604Z,49.53
2022-11-10T07:10:39.010Z,46.50
2022-11-10T07:13:26.327Z,46.70
2022-11-10T07:16:14.016Z,47.13
2022-11-10T07:19:01.510Z,46.80
2022-11-10T07:21:49.180Z,48.22
2022-11-10T07:24:38.238Z,45.05
2022-11-10T07:27:25.509Z,44.53
2022-11-10T07:30:14.024Z,45.80
2022-11-10T07:33:02.541Z,48.28
2022-11-10T07:35:54.929Z,45.92
2022-11-10T07:38:42.281Z,44.65
2022-11-10T07:41:30.624Z,46.38
2022-11-10T07:44:17.947Z,43.58
2022-11-10T07:47:04.993Z,44.45
2022-11-10T07:49:52.416Z,45.17
2022-11-10T07:52:39.875Z,42.28
2022-11-10T07:55:27.199Z,46.95
2022-11-10T07:58:17.083Z,42.63
2022-11-10T08:01:04.203Z,43.67
2022-11-10T08:03:51.755Z,42.95
2022-11-10T08:06:39.035Z,41.40
2022-11-10T08:09:26.448Z,44.15
2022-11-10T08:12:13.514Z,42.67
2022-11-10T08:15:02.104Z,42.85
2022-11-10T08:17:49.450Z,43.05
2022-11-10T08:20:36.945Z,42.25
2022-11-10T08:23:24.780Z,40.58
2022-11-10T08:26:12.170Z,42.67
2022-11-10T08:28:59.795Z,40.75
2022-11-10T08:31:48.345Z,37.05
2022-11-10T08:34:35.523Z,41.42
2022-11-10T08:37:23.034Z,38.97
2022-11-10T08:40:11.425Z,39.70
2022-11-10T08:43:03.268Z,39.67
2022-11-10T08:45:51.042Z,38.22
2022-11-10T08:48:39.973Z,37.50
2022-11-10T08:51:27.140Z,41.05
2022-11-10T08:54:14.898Z,36.72
2022-11-10T08:57:02.173Z,35.60
2022-11-10T08:59:49.649Z,35.20
2022-11-10T09:02:37.077Z,35.90
2022-11-10T09:05:26.370Z,35.63
2022-11-10T09:08:13.610Z,35.83
2022-11-10T09:11:03.615Z,32.63
2022-11-10T09:13:51.210Z,32.90
2022-11-10T09:16:38.946Z,32.85
2022-11-10T09:19:26.616Z,32.65
2022-11-10T09:22:15.187Z,33.95
2022-11-10T09:25:02.770Z,34.05
2022-11-10T09:27:50.435Z,35.58
2022-11-10T09:30:37.747Z,34.83
2022-11-10T09:33:25.679Z,33.00
2022-11-10T09:36:13.572Z,33.58
2022-11-10T09:39:02.434Z,30.85
2022-11-10T09:41:49.982Z,32.90
2022-11-10T09:44:40.888Z,33.90
2022-11-10T09:47:56.365Z,31.70
2022-11-10T09:50:45.996Z,35.38
2022-11-10T09:53:38.163Z,32.13
2022-11-10T09:56:33.333Z,34.50
2022-11-10T09:59:23.568Z,30.55
2022-11-10T10:02:20.355Z,33.60
2022-11-10T10:05:33.974Z,31.63
2022-11-10T10:08:27.416Z,33.05
2022-11-10T10:11:34.667Z,31.45
2022-11-10T10:14:32.580Z,31.60
2022-11-10T10:17:26.874Z,33.08
2022-11-10T10:20:20.261Z,31.52
2022-11-10T10:23:17.039Z,30.00
2022-11-10T10:26:04.444Z,28.83
2022-11-10T10:28:53.311Z,28.40
2022-11-10T10:31:42.591Z,28.30
2022-11-10T10:34:31.787Z,27.85
2022-11-10T10:37:25.028Z,28.23
2022-11-10T10:40:16.121Z,26.73
2022-11-10T10:43:03.811Z,27.15
2022-11-10T10:46:07.909Z,26.90
2022-11-10T10:52:24.887Z,24.10
2022-11-10T10:55:14.150Z,22.30
2022-11-10T10:58:03.072Z,20.85
2022-11-10T11:00:52.610Z,23.10
2022-11-10T11:03:44.171Z,22.92
2022-11-10T11:06:32.149Z,23.33
2022-11-10T11:09:21.226Z,22.73
2022-11-10T11:12:12.041Z,23.30
2022-11-10T11:15:26.615Z,22.70
2022-11-10T11:18:16.478Z,21.98
2022-11-10T11:21:10.988Z,21.57
2022-11-10T11:24:13.013Z,23.10
2022-11-10T11:27:03.175Z,20.27
2022-11-10T11:30:05.712Z,19.23
2022-11-10T11:33:12.269Z,20.85
2022-11-10T11:36:04.288Z,20.48
2022-11-10T11:39:00.110Z,19.52
2022-11-10T11:41:51.725Z,17.67
2022-11-10T11:45:00.614Z,17.92
2022-11-10T11:48:09.581Z,15.80
2022-11-10T11:50:59.329Z,17.10
2022-11-10T11:54:04.091Z,17.05
2022-11-10T11:56:52.294Z,17.00
2022-11-10T11:59:50.806Z,17.23
2022-11-10T12:03:08.283Z,17.23
2022-11-10T12:06:05.447Z,16.35
2022-11-10T12:08:58.669Z,15.48
2022-11-10T12:11:57.481Z,15.00
2022-11-10T12:14:52.761Z,15.02
2022-11-10T12:17:45.667Z,14.80
2022-11-10T12:20:40.996Z,15.90
2022-11-10T12:23:34.335Z,15.38
2022-11-10T12:26:31.911Z,15.75
2022-11-10T12:29:25.669Z,15.95
2022-11-10T12:32:17.656Z,13.43
2022-11-10T12:35:09.325Z,16.30
2022-11-10T12:38:00.308Z,15.68
2022-11-10T12:40:50.185Z,15.43
2022-11-10T12:43:41.812Z,15.80
2022-11-10T12:46:30.758Z,16.58
2022-11-10T12:49:19.858Z,15.05
2022-11-10T12:52:11.808Z,16.48
2022-11-10T12:54:59.178Z,17.02
2022-11-10T12:57:46.933Z,15.00
2022-11-10T13:00:38.849Z,16.17
2022-11-10T13:03:30.933Z,15.57
2022-11-10T13:06:27.672Z,17.02
2022-11-10T13:09:26.278Z,16.00
2022-11-10T13:12:21.516Z,15.13
2022-11-10T13:15:44.604Z,17.13
2022-11-10T13:18:57.239Z,15.93
2022-11-10T13:22:12.392Z,14.88
2022-11-10T13:25:36.261Z,15.48
2022-11-10T13:29:01.677Z,15.68
2022-11-10T13:31:54.899Z,14.93
2022-11-10T13:34:44.799Z,15.73
2022-11-10T13:37:50.950Z,14.45
2022-11-10T13:40:41.085Z,15.13
2022-11-10T13:43:29.018Z,14.70
2022-11-10T13:46:16.672Z,15.38
2022-11-10T13:49:26.801Z,15.23
2022-11-10T13:52:18.717Z,15.45
2022-11-10T13:55:16.823Z,15.27
2022-11-10T13:58:05.865Z,15.93
2022-11-10T14:01:23.004Z,15.10
2022-11-10T14:04:10.181Z,15.85
2022-11-10T14:06:58.599Z,15.80
2022-11-10T14:09:49.556Z,16.27
2022-11-10T14:12:42.487Z,14.25
2022-11-10T14:15:38.830Z,14.93
2022-11-10T14:18:29.307Z,16.52
2022-11-10T14:21:23.054Z,16.63
2022-11-10T14:24:17.025Z,16.50
2022-11-10T14:27:09.890Z,16.90
2022-11-10T14:30:21.911Z,16.77
2022-11-10T14:33:12.932Z,16.23
2022-11-10T14:36:02.126Z,18.02
2022-11-10T14:38:49.687Z,17.48
2022-11-10T14:41:37.537Z,17.08
2022-11-10T14:44:27.619Z,17.55
2022-11-10T14:47:16.935Z,18.35
2022-11-10T14:50:09.373Z,18.80
2022-11-10T14:52:59.651Z,18.25
2022-11-10T14:55:51.873Z,17.38
2022-11-10T14:58:43.595Z,17.58
2022-11-10T15:01:36.017Z,18.58
2022-11-10T15:04:28.803Z,18.33
2022-11-10T15:07:16.382Z,18.27
2022-11-10T15:10:06.880Z,19.40
2022-11-10T15:13:05.658Z,18.80
2022-11-10T15:15:53.712Z,17.55
2022-11-10T15:18:42.448Z,19.88
2022-11-10T15:21:34.129Z,19.23
2022-11-10T15:24:28.458Z,19.23
2022-11-10T15:27:24.082Z,18.85
2022-11-10T15:30:23.079Z,18.08
2022-11-10T15:33:11.642Z,20.25
2022-11-10T15:36:16.222Z,18.58
2022-11-10T15:39:08.478Z,20.75
2022-11-10T15:41:59.499Z,19.00
2022-11-10T15:44:47.798Z,20.42
2022-11-10T15:47:35.370Z,20.55
2022-11-10T15:50:22.756Z,18.60
2022-11-10T15:53:15.204Z,19.52
2022-11-10T15:56:02.832Z,18.95
2022-11-10T15:58:51.879Z,18.35
2022-11-10T16:01:39.277Z,19.05
2022-11-10T16:04:28.308Z,18.85
2022-11-10T16:07:15.563Z,18.40
2022-11-10T16:10:04.566Z,17.80
2022-11-10T16:12:52.243Z,16.52
2022-11-10T16:15:40.083Z,16.88
2022-11-10T16:18:28.775Z,16.13
2022-11-10T16:21:16.889Z,17.25
2022-11-10T16:24:04.534Z,16.98
2022-11-10T16:26:53.321Z,17.33
2022-11-10T16:29:40.880Z,18.50
2022-11-10T16:32:28.281Z,17.45
2022-11-10T16:35:15.759Z,17.38
2022-11-10T16:38:18.428Z,16.35
2022-11-10T16:41:11.329Z,16.08
2022-11-10T16:43:59.930Z,17.40
2022-11-10T16:46:51.702Z,17.77
2022-11-10T16:49:45.546Z,17.90
2022-11-10T16:52:32.682Z,16.73
2022-11-10T16:55:20.078Z,17.13
2022-11-10T16:58:07.505Z,18.35
2022-11-10T17:00:58.882Z,18.42
2022-11-10T17:03:47.731Z,17.33
2022-11-10T17:06:35.732Z,19.23
2022-11-10T17:09:26.160Z,19.98
2022-11-10T17:12:14.719Z,20.70
2022-11-10T17:15:02.197Z,20.20
2022-11-10T17:17:53.574Z,22.25
2022-11-10T17:20:43.026Z,21.23
2022-11-10T17:23:30.663Z,22.38
2022-11-10T17:26:19.262Z,21.27
2022-11-10T17:29:06.505Z,22.40
2022-11-10T17:31:54.455Z,22.50
2022-11-10T17:34:43.047Z,23.15
2022-11-10T17:37:30.259Z,21.35
2022-11-10T17:40:20.592Z,22.33
2022-11-10T17:43:09.571Z,22.52
2022-11-10T17:45:56.903Z,23.33
2022-11-10T17:48:44.685Z,23.25
2022-11-10T17:51:33.814Z,23.13
2022-11-10T17:54:21.092Z,22.38
2022-11-10T17:57:10.066Z,21.77
2022-11-10T17:59:57.420Z,21.77
2022-11-10T18:02:47.243Z,19.77
2022-11-10T18:05:37.351Z,23.67
2022-11-10T18:08:26.255Z,22.92
2022-11-10T18:11:15.072Z,20.98
2022-11-10T18:14:03.188Z,22.50
2022-11-10T18:16:50.404Z,20.63
2022-11-10T18:19:37.907Z,20.25
2022-11-10T18:22:25.130Z,20.23
2022-11-10T18:25:13.945Z,19.67
2022-11-10T18:28:01.179Z,20.63
2022-11-10T18:30:48.632Z,20.45
2022-11-10T18:33:36.918Z,21.83
2022-11-10T18:36:24.262Z,21.98
2022-11-10T18:39:11.882Z,21.88
2022-11-10T18:42:00.676Z,22.42
2022-11-10T18:44:48.049Z,22.80
2022-11-10T18:47:35.400Z,22.20
2022-11-10T18:50:22.941Z,23.45
2022-11-10T18:53:10.307Z,25.27
2022-11-10T18:55:57.923Z,25.15
2022-11-10T18:58:53.745Z,24.77
2022-11-10T19:01:44.497Z,25.25
2022-11-10T19:04:32.031Z,27.23
2022-11-10T19:07:19.500Z,25.50
2022-11-10T19:10:07.878Z,25.65
2022-11-10T19:12:55.303Z,24.15
2022-11-10T19:15:43.950Z,25.50
2022-11-10T19:18:31.153Z,26.40
2022-11-10T19:21:20.124Z,26.30
2022-11-10T19:24:08.010Z,25.05
2022-11-10T19:26:55.148Z,25.30
2022-11-10T19:29:42.277Z,25.45
2022-11-10T19:32:32.308Z,25.08
2022-11-10T19:35:19.759Z,25.42
2022-11-10T19:38:06.441Z,25.48
2022-11-10T19:40:53.599Z,26.23
2022-11-10T19:43:44.910Z,26.90
2022-11-10T19:46:37.064Z,26.50
2022-11-10T19:49:25.920Z,26.00
2022-11-10T19:52:13.202Z,25.17
2022-11-10T19:55:00.208Z,28.02
2022-11-10T19:57:47.491Z,26.63
2022-11-10T20:00:34.908Z,25.92
2022-11-10T20:03:22.694Z,28.00
2022-11-10T20:06:13.202Z,25.63
2022-11-10T20:09:00.346Z,28.52
2022-11-10T20:11:47.989Z,29.80
2022-11-10T20:14:35.705Z,29.60
2022-11-10T20:17:23.128Z,27.50
2022-11-10T20:20:10.935Z,29.15
2022-11-10T20:23:03.298Z,29.70
2022-11-10T20:25:50.749Z,32.95
2022-11-10T20:28:39.568Z,32.67
2022-11-10T20:31:27.367Z,31.00
2022-11-10T20:34:15.359Z,28.83
2022-11-10T20:37:02.836Z,30.45
2022-11-10T20:39:51.593Z,28.23
2022-11-10T20:42:42.491Z,30.52
2022-11-10T20:45:30.288Z,30.85
2022-11-10T20:48:17.715Z,31.52
2022-11-10T20:51:10.205Z,30.85
2022-11-10T20:53:59.516Z,32.25
2022-11-10T20:56:48.019Z,32.28
2022-11-10T20:59:35.188Z,31.45
2022-11-10T21:02:22.870Z,31.25
2022-11-10T21:05:10.736Z,30.80
2022-11-10T21:07:58.138Z,33.42
2022-11-10T21:10:51.649Z,32.13
2022-11-10T21:13:40.475Z,31.23
2022-11-10T21:16:28.460Z,32.25
2022-11-10T21:19:16.172Z,33.47
2022-11-10T21:22:03.450Z,34.47
2022-11-10T21:24:50.870Z,33.53
2022-11-10T21:27:38.381Z,31.58
2022-11-10T21:30:27.583Z,31.27
2022-11-10T21:33:15.020Z,29.05
2022-11-10T21:36:06.820Z,29.15
2022-11-10T21:38:54.402Z,29.55
2022-11-10T21:41:41.942Z,29.10
2022-11-10T21:44:29.383Z,28.52
2022-11-10T21:47:17.923Z,28.25
2022-11-10T21:50:05.567Z,28.25
2022-11-10T21:52:52.830Z,26.95
2022-11-10T21:55:40.126Z,28.23
2022-11-10T21:58:28.346Z,28.27
2022-11-10T22:01:19.093Z,26.23
2022-11-10T22:04:07.438Z,27.27
2022-11-10T22:07:11.756Z,28.63
2022-11-10T22:10:16.621Z,28.40
2022-11-10T22:13:21.148Z,26.73
2022-11-10T22:16:38.354Z,26.65
2022-11-10T22:19:26.597Z,25.20
2022-11-10T22:22:15.371Z,26.17
2022-11-10T22:25:02.796Z,25.77
2022-11-10T22:27:49.765Z,24.92
2022-11-10T22:30:37.629Z,27.13
2022-11-10T22:33:34.784Z,29.73
2022-11-10T22:36:23.596Z,28.95
2022-11-10T22:39:10.893Z,29.20
2022-11-10T22:42:15.438Z,27.08
2022-11-10T22:45:02.459Z,29.05
2022-11-10T22:48:07.229Z,29.95
2022-11-10T22:50:57.311Z,31.35
2022-11-10T22:53:45.819Z,32.83
2022-11-10T22:56:34.360Z,31.13
2022-11-10T22:59:21.516Z,30.80
2022-11-10T23:02:08.229Z,34.63
2022-11-10T23:04:55.381Z,32.15
2022-11-10T23:07:42.495Z,33.30
2022-11-10T23:10:30.741Z,30.95
2022-11-10T23:13:17.950Z,28.45
2022-11-10T23:16:06.474Z,28.25
2022-11-10T23:18:54.864Z,30.05
2022-11-10T23:21:42.077Z,29.48
2022-11-10T23:24:28.923Z,30.15
2022-11-10T23:27:17.262Z,29.55
2022-11-10T23:30:04.603Z,31.00
2022-11-10T23:32:51.505Z,31.85
2022-11-10T23:35:38.857Z,30.17
2022-11-10T23:38:26.151Z,28.80
2022-11-10T23:41:15.055Z,28.83
2022-11-10T23:44:03.404Z,30.40
2022-11-10T23:46:50.480Z,30.83
2022-11-10T23:49:37.214Z,30.90
2022-11-10T23:52:23.988Z,30.30
2022-11-10T23:55:11.084Z,28.00
2022-11-10T23:57:57.791Z,27.65
